sensor_id;sensor_type;location;lat;lon;timestamp;P1;durP1;ratioP1;P2;durP2;ratioP2
76818;SDS011;65772;51.096;17.006;2024-01-30T00:01:38;13.20;;;6.30;;
76818;SDS011;65772;51.096;17.006;2024-01-30T00:04:09;13.30;;;6.00;;
76818;SDS011;65772;51.096;17.006;2024-01-30T00:06:39;14.40;;;6.20;;
76818;SDS011;65772;51.096;17.006;2024-01-30T00:09:10;12.00;;;5.90;;
76818;SDS011;65772;51.096;17.006;2024-01-30T00:11:41;15.00;;;6.00;;
76818;SDS011;65772;51.096;17.006;2024-01-30T00:14:12;15.30;;;6.60;;
76818;SDS011;65772;51.096;17.006;2024-01-30T00:16:42;15.00;;;6.20;;
76818;SDS011;65772;51.096;17.006;2024-01-30T00:19:13;13.20;;;6.20;;
76818;SDS011;65772;51.096;17.006;2024-01-30T00:21:44;14.80;;;6.90;;
76818;SDS011;65772;51.096;17.006;2024-01-30T00:24:14;14.50;;;6.10;;
76818;SDS011;65772;51.096;17.006;2024-01-30T00:26:45;13.00;;;6.20;;
76818;SDS011;65772;51.096;17.006;2024-01-30T00:29:15;15.80;;;6.40;;
76818;SDS011;65772;51.096;17.006;2024-01-30T00:31:47;14.90;;;6.70;;
76818;SDS011;65772;51.096;17.006;2024-01-30T00:34:18;14.20;;;6.70;;
76818;SDS011;65772;51.096;17.006;2024-01-30T00:36:49;12.30;;;6.00;;
76818;SDS011;65772;51.096;17.006;2024-01-30T00:39:19;14.60;;;6.50;;
76818;SDS011;65772;51.096;17.006;2024-01-30T00:41:50;15.70;;;6.50;;
76818;SDS011;65772;51.096;17.006;2024-01-30T00:44:20;14.40;;;6.20;;
76818;SDS011;65772;51.096;17.006;2024-01-30T00:46:51;15.40;;;7.20;;
76818;SDS011;65772;51.096;17.006;2024-01-30T00:49:21;11.70;;;6.00;;
76818;SDS011;65772;51.096;17.006;2024-01-30T00:51:52;12.80;;;6.40;;
76818;SDS011;65772;51.096;17.006;2024-01-30T00:54:22;16.30;;;7.40;;
76818;SDS011;65772;51.096;17.006;2024-01-30T00:56:53;15.90;;;7.50;;
76818;SDS011;65772;51.096;17.006;2024-01-30T00:59:24;14.40;;;6.60;;
76818;SDS011;65772;51.096;17.006;2024-01-30T01:01:55;17.80;;;7.10;;
76818;SDS011;65772;51.096;17.006;2024-01-30T01:04:25;13.30;;;6.80;;
76818;SDS011;65772;51.096;17.006;2024-01-30T01:06:56;15.10;;;7.20;;
76818;SDS011;65772;51.096;17.006;2024-01-30T01:09:27;14.40;;;6.80;;
76818;SDS011;65772;51.096;17.006;2024-01-30T01:11:57;13.10;;;6.00;;
76818;SDS011;65772;51.096;17.006;2024-01-30T01:14:28;15.50;;;6.70;;
76818;SDS011;65772;51.096;17.006;2024-01-30T01:16:58;12.40;;;6.40;;
76818;SDS011;65772;51.096;17.006;2024-01-30T01:19:29;13.70;;;6.30;;
76818;SDS011;65772;51.096;17.006;2024-01-30T01:22:00;14.10;;;6.40;;
76818;SDS011;65772;51.096;17.006;2024-01-30T01:24:31;20.20;;;9.10;;
76818;SDS011;65772;51.096;17.006;2024-01-30T01:27:02;14.10;;;7.40;;
76818;SDS011;65772;51.096;17.006;2024-01-30T01:29:33;12.80;;;6.20;;
76818;SDS011;65772;51.096;17.006;2024-01-30T01:32:04;12.10;;;5.90;;
76818;SDS011;65772;51.096;17.006;2024-01-30T01:34:35;14.40;;;6.20;;
76818;SDS011;65772;51.096;17.006;2024-01-30T01:37:06;13.00;;;6.50;;
76818;SDS011;65772;51.096;17.006;2024-01-30T01:39:37;17.20;;;7.10;;
76818;SDS011;65772;51.096;17.006;2024-01-30T01:42:07;15.70;;;6.70;;
76818;SDS011;65772;51.096;17.006;2024-01-30T01:44:38;16.30;;;6.50;;
76818;SDS011;65772;51.096;17.006;2024-01-30T01:47:08;17.10;;;6.40;;
76818;SDS011;65772;51.096;17.006;2024-01-30T01:49:39;14.10;;;6.40;;
76818;SDS011;65772;51.096;17.006;2024-01-30T01:52:10;13.90;;;6.30;;
76818;SDS011;65772;51.096;17.006;2024-01-30T01:54:40;17.50;;;7.60;;
76818;SDS011;65772;51.096;17.006;2024-01-30T01:57:11;15.10;;;6.80;;
76818;SDS011;65772;51.096;17.006;2024-01-30T01:59:42;12.70;;;6.50;;
76818;SDS011;65772;51.096;17.006;2024-01-30T02:02:13;11.40;;;5.30;;
76818;SDS011;65772;51.096;17.006;2024-01-30T02:04:46;15.30;;;6.00;;
76818;SDS011;65772;51.096;17.006;2024-01-30T02:07:17;12.40;;;5.60;;
76818;SDS011;65772;51.096;17.006;2024-01-30T02:09:48;13.00;;;5.80;;
76818;SDS011;65772;51.096;17.006;2024-01-30T02:12:18;12.90;;;5.50;;
76818;SDS011;65772;51.096;17.006;2024-01-30T02:14:50;10.10;;;5.60;;
76818;SDS011;65772;51.096;17.006;2024-01-30T02:17:21;11.80;;;5.80;;
76818;SDS011;65772;51.096;17.006;2024-01-30T02:19:52;12.30;;;5.40;;
76818;SDS011;65772;51.096;17.006;2024-01-30T02:22:23;13.20;;;6.00;;
76818;SDS011;65772;51.096;17.006;2024-01-30T02:24:54;13.50;;;6.00;;
76818;SDS011;65772;51.096;17.006;2024-01-30T02:27:25;9.50;;;5.30;;
76818;SDS011;65772;51.096;17.006;2024-01-30T02:29:55;12.30;;;5.80;;
76818;SDS011;65772;51.096;17.006;2024-01-30T02:32:26;10.10;;;5.50;;
76818;SDS011;65772;51.096;17.006;2024-01-30T02:34:56;11.60;;;5.70;;
76818;SDS011;65772;51.096;17.006;2024-01-30T02:37:27;13.10;;;6.10;;
76818;SDS011;65772;51.096;17.006;2024-01-30T02:39:57;11.80;;;5.70;;
76818;SDS011;65772;51.096;17.006;2024-01-30T02:42:28;10.50;;;5.50;;
76818;SDS011;65772;51.096;17.006;2024-01-30T02:44:59;11.30;;;5.40;;
76818;SDS011;65772;51.096;17.006;2024-01-30T02:47:29;11.90;;;5.50;;
76818;SDS011;65772;51.096;17.006;2024-01-30T02:50:00;11.60;;;5.80;;
76818;SDS011;65772;51.096;17.006;2024-01-30T02:52:31;12.40;;;5.50;;
76818;SDS011;65772;51.096;17.006;2024-01-30T02:55:01;11.60;;;5.60;;
76818;SDS011;65772;51.096;17.006;2024-01-30T02:57:32;12.90;;;6.10;;
76818;SDS011;65772;51.096;17.006;2024-01-30T03:00:03;14.10;;;6.40;;
76818;SDS011;65772;51.096;17.006;2024-01-30T03:02:37;15.00;;;6.40;;
76818;SDS011;65772;51.096;17.006;2024-01-30T03:05:08;13.10;;;5.80;;
76818;SDS011;65772;51.096;17.006;2024-01-30T03:07:38;12.80;;;5.80;;
76818;SDS011;65772;51.096;17.006;2024-01-30T03:10:09;12.20;;;5.80;;
76818;SDS011;65772;51.096;17.006;2024-01-30T03:12:40;10.90;;;5.50;;
76818;SDS011;65772;51.096;17.006;2024-01-30T03:15:10;12.00;;;5.60;;
76818;SDS011;65772;51.096;17.006;2024-01-30T03:17:41;14.90;;;6.10;;
76818;SDS011;65772;51.096;17.006;2024-01-30T03:20:12;12.10;;;5.50;;
76818;SDS011;65772;51.096;17.006;2024-01-30T03:22:43;12.40;;;6.20;;
76818;SDS011;65772;51.096;17.006;2024-01-30T03:25:14;15.50;;;6.30;;
76818;SDS011;65772;51.096;17.006;2024-01-30T03:27:44;11.10;;;5.40;;
76818;SDS011;65772;51.096;17.006;2024-01-30T03:30:15;12.90;;;6.00;;
76818;SDS011;65772;51.096;17.006;2024-01-30T03:32:46;11.90;;;5.60;;
76818;SDS011;65772;51.096;17.006;2024-01-30T03:35:16;9.40;;;5.40;;
76818;SDS011;65772;51.096;17.006;2024-01-30T03:37:47;13.20;;;6.40;;
76818;SDS011;65772;51.096;17.006;2024-01-30T03:40:18;11.60;;;5.70;;
76818;SDS011;65772;51.096;17.006;2024-01-30T03:42:49;14.40;;;6.20;;
76818;SDS011;65772;51.096;17.006;2024-01-30T03:45:19;12.40;;;6.00;;
76818;SDS011;65772;51.096;17.006;2024-01-30T03:47:50;11.80;;;6.10;;
76818;SDS011;65772;51.096;17.006;2024-01-30T03:50:20;12.60;;;5.80;;
76818;SDS011;65772;51.096;17.006;2024-01-30T03:52:51;11.40;;;5.70;;
76818;SDS011;65772;51.096;17.006;2024-01-30T03:55:21;12.30;;;6.50;;
76818;SDS011;65772;51.096;17.006;2024-01-30T03:57:52;12.80;;;5.70;;
76818;SDS011;65772;51.096;17.006;2024-01-30T04:00:23;12.60;;;6.10;;
76818;SDS011;65772;51.096;17.006;2024-01-30T04:02:53;11.70;;;5.80;;
76818;SDS011;65772;51.096;17.006;2024-01-30T04:05:24;13.40;;;5.40;;
76818;SDS011;65772;51.096;17.006;2024-01-30T04:07:55;12.60;;;6.10;;
76818;SDS011;65772;51.096;17.006;2024-01-30T04:10:25;10.80;;;6.00;;
76818;SDS011;65772;51.096;17.006;2024-01-30T04:12:56;12.40;;;5.70;;
76818;SDS011;65772;51.096;17.006;2024-01-30T04:15:27;11.80;;;6.30;;
76818;SDS011;65772;51.096;17.006;2024-01-30T04:17:58;11.10;;;5.70;;
76818;SDS011;65772;51.096;17.006;2024-01-30T04:20:29;13.20;;;6.30;;
76818;SDS011;65772;51.096;17.006;2024-01-30T04:23:00;11.80;;;6.00;;
76818;SDS011;65772;51.096;17.006;2024-01-30T04:25:30;12.60;;;5.70;;
76818;SDS011;65772;51.096;17.006;2024-01-30T04:28:01;13.60;;;6.20;;
76818;SDS011;65772;51.096;17.006;2024-01-30T04:30:32;12.20;;;5.60;;
76818;SDS011;65772;51.096;17.006;2024-01-30T04:33:03;12.40;;;6.00;;
76818;SDS011;65772;51.096;17.006;2024-01-30T04:35:34;11.00;;;5.90;;
76818;SDS011;65772;51.096;17.006;2024-01-30T04:38:04;12.00;;;6.30;;
76818;SDS011;65772;51.096;17.006;2024-01-30T04:40:35;12.80;;;5.50;;
76818;SDS011;65772;51.096;17.006;2024-01-30T04:43:05;14.70;;;5.90;;
76818;SDS011;65772;51.096;17.006;2024-01-30T04:45:36;11.20;;;5.70;;
76818;SDS011;65772;51.096;17.006;2024-01-30T04:48:07;13.00;;;6.40;;
76818;SDS011;65772;51.096;17.006;2024-01-30T04:50:38;12.00;;;5.70;;
76818;SDS011;65772;51.096;17.006;2024-01-30T04:53:08;13.60;;;6.00;;
76818;SDS011;65772;51.096;17.006;2024-01-30T04:55:39;9.90;;;5.20;;
76818;SDS011;65772;51.096;17.006;2024-01-30T04:58:09;10.10;;;5.50;;
76818;SDS011;65772;51.096;17.006;2024-01-30T05:00:40;11.70;;;5.90;;
76818;SDS011;65772;51.096;17.006;2024-01-30T05:03:11;12.30;;;6.00;;
76818;SDS011;65772;51.096;17.006;2024-01-30T05:05:41;11.70;;;6.20;;
76818;SDS011;65772;51.096;17.006;2024-01-30T05:08:12;11.10;;;6.10;;
76818;SDS011;65772;51.096;17.006;2024-01-30T05:10:42;10.60;;;5.80;;
76818;SDS011;65772;51.096;17.006;2024-01-30T05:13:14;12.60;;;5.90;;
76818;SDS011;65772;51.096;17.006;2024-01-30T05:15:44;10.90;;;5.80;;
76818;SDS011;65772;51.096;17.006;2024-01-30T05:18:15;11.90;;;6.00;;
76818;SDS011;65772;51.096;17.006;2024-01-30T05:20:45;11.20;;;5.60;;
76818;SDS011;65772;51.096;17.006;2024-01-30T05:23:16;11.00;;;5.50;;
76818;SDS011;65772;51.096;17.006;2024-01-30T05:25:47;12.50;;;5.90;;
76818;SDS011;65772;51.096;17.006;2024-01-30T05:28:17;11.90;;;5.60;;
76818;SDS011;65772;51.096;17.006;2024-01-30T05:30:48;11.50;;;5.90;;
76818;SDS011;65772;51.096;17.006;2024-01-30T05:33:18;12.30;;;5.90;;
76818;SDS011;65772;51.096;17.006;2024-01-30T05:35:49;12.50;;;5.90;;
76818;SDS011;65772;51.096;17.006;2024-01-30T05:38:22;11.40;;;6.00;;
76818;SDS011;65772;51.096;17.006;2024-01-30T05:40:52;12.80;;;6.00;;
76818;SDS011;65772;51.096;17.006;2024-01-30T05:43:23;12.10;;;5.60;;
76818;SDS011;65772;51.096;17.006;2024-01-30T05:45:54;13.60;;;6.10;;
76818;SDS011;65772;51.096;17.006;2024-01-30T05:48:24;12.80;;;6.20;;
76818;SDS011;65772;51.096;17.006;2024-01-30T05:50:55;11.20;;;6.00;;
76818;SDS011;65772;51.096;17.006;2024-01-30T05:53:27;13.90;;;6.70;;
76818;SDS011;65772;51.096;17.006;2024-01-30T05:55:58;12.60;;;6.90;;
76818;SDS011;65772;51.096;17.006;2024-01-30T05:58:29;12.80;;;6.30;;
76818;SDS011;65772;51.096;17.006;2024-01-30T06:01:00;13.30;;;5.80;;
76818;SDS011;65772;51.096;17.006;2024-01-30T06:03:31;15.40;;;6.40;;
76818;SDS011;65772;51.096;17.006;2024-01-30T06:06:01;16.00;;;7.00;;
76818;SDS011;65772;51.096;17.006;2024-01-30T06:08:32;14.40;;;6.60;;
76818;SDS011;65772;51.096;17.006;2024-01-30T06:11:03;11.30;;;6.00;;
76818;SDS011;65772;51.096;17.006;2024-01-30T06:13:33;13.30;;;6.20;;
76818;SDS011;65772;51.096;17.006;2024-01-30T06:16:04;13.50;;;7.10;;
76818;SDS011;65772;51.096;17.006;2024-01-30T06:18:37;14.10;;;6.60;;
76818;SDS011;65772;51.096;17.006;2024-01-30T06:21:08;13.30;;;7.30;;
76818;SDS011;65772;51.096;17.006;2024-01-30T06:23:40;17.60;;;6.60;;
76818;SDS011;65772;51.096;17.006;2024-01-30T06:26:10;14.10;;;6.70;;
76818;SDS011;65772;51.096;17.006;2024-01-30T06:28:41;13.80;;;6.40;;
76818;SDS011;65772;51.096;17.006;2024-01-30T06:31:12;15.30;;;6.80;;
76818;SDS011;65772;51.096;17.006;2024-01-30T06:33:42;13.00;;;6.70;;
76818;SDS011;65772;51.096;17.006;2024-01-30T06:36:15;14.40;;;7.00;;
76818;SDS011;65772;51.096;17.006;2024-01-30T06:38:46;17.70;;;7.00;;
76818;SDS011;65772;51.096;17.006;2024-01-30T06:41:16;14.10;;;6.60;;
76818;SDS011;65772;51.096;17.006;2024-01-30T06:43:47;12.70;;;6.60;;
76818;SDS011;65772;51.096;17.006;2024-01-30T06:46:17;12.90;;;6.20;;
76818;SDS011;65772;51.096;17.006;2024-01-30T06:48:48;10.80;;;6.60;;
76818;SDS011;65772;51.096;17.006;2024-01-30T06:51:18;13.60;;;6.70;;
76818;SDS011;65772;51.096;17.006;2024-01-30T06:53:49;12.80;;;6.30;;
76818;SDS011;65772;51.096;17.006;2024-01-30T06:56:20;15.10;;;6.80;;
76818;SDS011;65772;51.096;17.006;2024-01-30T06:58:50;13.20;;;6.70;;
76818;SDS011;65772;51.096;17.006;2024-01-30T07:01:21;10.40;;;6.10;;
76818;SDS011;65772;51.096;17.006;2024-01-30T07:03:58;15.80;;;6.50;;
76818;SDS011;65772;51.096;17.006;2024-01-30T07:06:29;11.90;;;6.10;;
76818;SDS011;65772;51.096;17.006;2024-01-30T07:08:59;15.50;;;5.90;;
76818;SDS011;65772;51.096;17.006;2024-01-30T07:11:31;14.50;;;6.20;;
76818;SDS011;65772;51.096;17.006;2024-01-30T07:14:01;12.20;;;6.00;;
76818;SDS011;65772;51.096;17.006;2024-01-30T07:16:32;12.30;;;6.20;;
76818;SDS011;65772;51.096;17.006;2024-01-30T07:19:03;11.20;;;5.40;;
76818;SDS011;65772;51.096;17.006;2024-01-30T07:21:33;12.50;;;5.20;;
76818;SDS011;65772;51.096;17.006;2024-01-30T07:24:04;12.00;;;5.20;;
76818;SDS011;65772;51.096;17.006;2024-01-30T07:26:35;11.10;;;5.30;;
76818;SDS011;65772;51.096;17.006;2024-01-30T07:29:05;12.20;;;5.70;;
76818;SDS011;65772;51.096;17.006;2024-01-30T07:31:36;11.80;;;5.20;;
76818;SDS011;65772;51.096;17.006;2024-01-30T07:34:08;10.60;;;5.10;;
76818;SDS011;65772;51.096;17.006;2024-01-30T07:36:39;10.80;;;5.10;;
76818;SDS011;65772;51.096;17.006;2024-01-30T07:39:10;12.70;;;4.80;;
76818;SDS011;65772;51.096;17.006;2024-01-30T07:41:40;11.30;;;4.90;;
76818;SDS011;65772;51.096;17.006;2024-01-30T07:44:11;12.90;;;5.20;;
76818;SDS011;65772;51.096;17.006;2024-01-30T07:46:42;11.10;;;5.60;;
76818;SDS011;65772;51.096;17.006;2024-01-30T07:49:12;9.50;;;4.60;;
76818;SDS011;65772;51.096;17.006;2024-01-30T07:51:43;11.70;;;5.60;;
76818;SDS011;65772;51.096;17.006;2024-01-30T07:54:14;10.50;;;5.20;;
76818;SDS011;65772;51.096;17.006;2024-01-30T07:56:45;10.70;;;5.80;;
76818;SDS011;65772;51.096;17.006;2024-01-30T07:59:16;9.30;;;4.90;;
76818;SDS011;65772;51.096;17.006;2024-01-30T08:01:49;10.50;;;5.30;;
76818;SDS011;65772;51.096;17.006;2024-01-30T08:04:20;10.40;;;5.50;;
76818;SDS011;65772;51.096;17.006;2024-01-30T08:06:51;12.80;;;5.40;;
76818;SDS011;65772;51.096;17.006;2024-01-30T08:09:21;10.40;;;5.40;;
76818;SDS011;65772;51.096;17.006;2024-01-30T08:11:52;11.10;;;5.10;;
76818;SDS011;65772;51.096;17.006;2024-01-30T08:14:22;11.90;;;5.00;;
76818;SDS011;65772;51.096;17.006;2024-01-30T08:16:53;11.90;;;5.50;;
76818;SDS011;65772;51.096;17.006;2024-01-30T08:19:24;12.00;;;5.40;;
76818;SDS011;65772;51.096;17.006;2024-01-30T08:21:54;14.90;;;5.30;;
76818;SDS011;65772;51.096;17.006;2024-01-30T08:24:25;11.80;;;5.30;;
76818;SDS011;65772;51.096;17.006;2024-01-30T08:26:56;14.20;;;5.90;;
76818;SDS011;65772;51.096;17.006;2024-01-30T08:29:28;12.70;;;5.40;;
76818;SDS011;65772;51.096;17.006;2024-01-30T08:31:59;10.30;;;4.90;;
76818;SDS011;65772;51.096;17.006;2024-01-30T08:34:30;12.10;;;5.50;;
76818;SDS011;65772;51.096;17.006;2024-01-30T08:37:01;10.10;;;4.50;;
76818;SDS011;65772;51.096;17.006;2024-01-30T08:39:31;11.90;;;5.80;;
76818;SDS011;65772;51.096;17.006;2024-01-30T08:42:02;10.50;;;4.80;;
76818;SDS011;65772;51.096;17.006;2024-01-30T08:44:33;13.50;;;4.90;;
76818;SDS011;65772;51.096;17.006;2024-01-30T08:47:04;10.40;;;5.10;;
76818;SDS011;65772;51.096;17.006;2024-01-30T08:49:35;12.30;;;4.90;;
76818;SDS011;65772;51.096;17.006;2024-01-30T08:52:06;13.90;;;5.80;;
76818;SDS011;65772;51.096;17.006;2024-01-30T08:54:36;12.80;;;7.00;;
76818;SDS011;65772;51.096;17.006;2024-01-30T08:57:07;16.10;;;8.60;;
76818;SDS011;65772;51.096;17.006;2024-01-30T08:59:37;11.00;;;5.90;;
76818;SDS011;65772;51.096;17.006;2024-01-30T09:02:08;9.70;;;5.60;;
76818;SDS011;65772;51.096;17.006;2024-01-30T09:04:41;15.00;;;5.20;;
76818;SDS011;65772;51.096;17.006;2024-01-30T09:07:11;9.30;;;4.50;;
76818;SDS011;65772;51.096;17.006;2024-01-30T09:09:42;11.80;;;5.10;;
76818;SDS011;65772;51.096;17.006;2024-01-30T09:12:13;10.40;;;4.80;;
76818;SDS011;65772;51.096;17.006;2024-01-30T09:14:44;8.30;;;4.50;;
76818;SDS011;65772;51.096;17.006;2024-01-30T09:17:14;11.00;;;4.50;;
76818;SDS011;65772;51.096;17.006;2024-01-30T09:19:45;8.90;;;4.80;;
76818;SDS011;65772;51.096;17.006;2024-01-30T09:22:16;9.90;;;5.10;;
76818;SDS011;65772;51.096;17.006;2024-01-30T09:24:46;11.90;;;4.80;;
76818;SDS011;65772;51.096;17.006;2024-01-30T09:27:17;13.90;;;5.20;;
76818;SDS011;65772;51.096;17.006;2024-01-30T09:29:47;10.00;;;5.00;;
76818;SDS011;65772;51.096;17.006;2024-01-30T09:32:18;12.60;;;5.40;;
76818;SDS011;65772;51.096;17.006;2024-01-30T09:34:48;7.90;;;4.20;;
76818;SDS011;65772;51.096;17.006;2024-01-30T09:37:19;13.60;;;5.10;;
76818;SDS011;65772;51.096;17.006;2024-01-30T09:39:54;10.20;;;4.60;;
76818;SDS011;65772;51.096;17.006;2024-01-30T09:42:26;10.90;;;4.50;;
76818;SDS011;65772;51.096;17.006;2024-01-30T09:45:03;10.50;;;4.70;;
76818;SDS011;65772;51.096;17.006;2024-01-30T09:47:36;9.90;;;4.60;;
76818;SDS011;65772;51.096;17.006;2024-01-30T09:50:11;8.60;;;4.80;;
76818;SDS011;65772;51.096;17.006;2024-01-30T09:52:43;12.20;;;5.20;;
76818;SDS011;65772;51.096;17.006;2024-01-30T09:55:14;9.10;;;5.20;;
76818;SDS011;65772;51.096;17.006;2024-01-30T09:57:45;11.00;;;4.50;;
76818;SDS011;65772;51.096;17.006;2024-01-30T10:00:16;8.20;;;4.50;;
76818;SDS011;65772;51.096;17.006;2024-01-30T10:02:47;10.10;;;4.40;;
76818;SDS011;65772;51.096;17.006;2024-01-30T10:05:17;7.80;;;4.40;;
76818;SDS011;65772;51.096;17.006;2024-01-30T10:07:53;8.30;;;4.30;;
76818;SDS011;65772;51.096;17.006;2024-01-30T10:10:26;7.90;;;4.00;;
76818;SDS011;65772;51.096;17.006;2024-01-30T10:12:56;8.00;;;4.50;;
76818;SDS011;65772;51.096;17.006;2024-01-30T10:15:31;8.30;;;4.00;;
76818;SDS011;65772;51.096;17.006;2024-01-30T10:18:03;12.50;;;4.40;;
76818;SDS011;65772;51.096;17.006;2024-01-30T10:20:35;10.90;;;5.20;;
76818;SDS011;65772;51.096;17.006;2024-01-30T10:23:06;9.30;;;4.10;;
76818;SDS011;65772;51.096;17.006;2024-01-30T10:25:37;8.60;;;3.90;;
76818;SDS011;65772;51.096;17.006;2024-01-30T10:28:08;11.30;;;4.70;;
76818;SDS011;65772;51.096;17.006;2024-01-30T10:30:40;9.50;;;4.60;;
76818;SDS011;65772;51.096;17.006;2024-01-30T10:33:11;9.60;;;4.40;;
76818;SDS011;65772;51.096;17.006;2024-01-30T10:35:42;9.70;;;4.30;;
76818;SDS011;65772;51.096;17.006;2024-01-30T10:38:13;9.10;;;4.00;;
76818;SDS011;65772;51.096;17.006;2024-01-30T10:40:48;12.30;;;4.30;;
76818;SDS011;65772;51.096;17.006;2024-01-30T10:43:23;8.10;;;4.00;;
76818;SDS011;65772;51.096;17.006;2024-01-30T10:45:58;9.90;;;4.50;;
76818;SDS011;65772;51.096;17.006;2024-01-30T10:48:36;9.60;;;4.30;;
76818;SDS011;65772;51.096;17.006;2024-01-30T10:51:12;11.10;;;4.30;;
76818;SDS011;65772;51.096;17.006;2024-01-30T10:53:44;8.30;;;4.00;;
76818;SDS011;65772;51.096;17.006;2024-01-30T10:56:18;10.20;;;4.30;;
76818;SDS011;65772;51.096;17.006;2024-01-30T10:58:52;9.60;;;4.30;;
76818;SDS011;65772;51.096;17.006;2024-01-30T11:01:23;9.70;;;4.80;;
76818;SDS011;65772;51.096;17.006;2024-01-30T11:03:55;7.80;;;4.40;;
76818;SDS011;65772;51.096;17.006;2024-01-30T11:06:27;10.50;;;4.50;;
76818;SDS011;65772;51.096;17.006;2024-01-30T11:09:04;8.30;;;4.60;;
76818;SDS011;65772;51.096;17.006;2024-01-30T11:11:50;10.40;;;4.60;;
76818;SDS011;65772;51.096;17.006;2024-01-30T11:14:29;9.00;;;4.10;;
76818;SDS011;65772;51.096;17.006;2024-01-30T11:17:00;9.30;;;4.40;;
76818;SDS011;65772;51.096;17.006;2024-01-30T11:19:32;10.10;;;4.60;;
76818;SDS011;65772;51.096;17.006;2024-01-30T11:22:04;9.40;;;4.30;;
76818;SDS011;65772;51.096;17.006;2024-01-30T11:24:42;9.20;;;4.30;;
76818;SDS011;65772;51.096;17.006;2024-01-30T11:27:15;8.50;;;4.50;;
76818;SDS011;65772;51.096;17.006;2024-01-30T11:29:49;10.20;;;4.90;;
76818;SDS011;65772;51.096;17.006;2024-01-30T11:32:23;11.90;;;5.20;;
76818;SDS011;65772;51.096;17.006;2024-01-30T11:34:53;8.80;;;4.30;;
76818;SDS011;65772;51.096;17.006;2024-01-30T11:37:25;10.50;;;5.40;;
76818;SDS011;65772;51.096;17.006;2024-01-30T11:39:57;11.80;;;4.50;;
76818;SDS011;65772;51.096;17.006;2024-01-30T11:42:30;7.90;;;4.20;;
76818;SDS011;65772;51.096;17.006;2024-01-30T11:45:02;10.70;;;4.80;;
76818;SDS011;65772;51.096;17.006;2024-01-30T11:47:36;8.80;;;4.10;;
76818;SDS011;65772;51.096;17.006;2024-01-30T11:50:11;9.80;;;4.60;;
76818;SDS011;65772;51.096;17.006;2024-01-30T11:52:42;9.00;;;4.10;;
76818;SDS011;65772;51.096;17.006;2024-01-30T11:55:13;9.50;;;4.80;;
76818;SDS011;65772;51.096;17.006;2024-01-30T12:00:18;7.90;;;4.40;;
76818;SDS011;65772;51.096;17.006;2024-01-30T12:02:50;9.80;;;4.40;;
76818;SDS011;65772;51.096;17.006;2024-01-30T12:05:24;9.50;;;4.30;;
76818;SDS011;65772;51.096;17.006;2024-01-30T12:07:55;10.50;;;4.30;;
76818;SDS011;65772;51.096;17.006;2024-01-30T12:10:29;10.20;;;4.90;;
76818;SDS011;65772;51.096;17.006;2024-01-30T12:13:00;9.60;;;4.60;;
76818;SDS011;65772;51.096;17.006;2024-01-30T12:15:32;7.40;;;4.00;;
76818;SDS011;65772;51.096;17.006;2024-01-30T12:18:06;7.70;;;3.90;;
76818;SDS011;65772;51.096;17.006;2024-01-30T12:20:38;8.40;;;4.30;;
76818;SDS011;65772;51.096;17.006;2024-01-30T12:23:08;7.90;;;4.30;;
76818;SDS011;65772;51.096;17.006;2024-01-30T12:25:41;10.10;;;4.70;;
76818;SDS011;65772;51.096;17.006;2024-01-30T12:28:11;9.90;;;4.90;;
76818;SDS011;65772;51.096;17.006;2024-01-30T12:33:16;9.20;;;4.60;;
76818;SDS011;65772;51.096;17.006;2024-01-30T12:35:48;8.40;;;3.80;;
76818;SDS011;65772;51.096;17.006;2024-01-30T12:38:30;9.40;;;4.40;;
76818;SDS011;65772;51.096;17.006;2024-01-30T12:41:00;10.60;;;4.20;;
76818;SDS011;65772;51.096;17.006;2024-01-30T12:43:31;10.30;;;4.70;;
76818;SDS011;65772;51.096;17.006;2024-01-30T12:46:06;7.40;;;3.90;;
76818;SDS011;65772;51.096;17.006;2024-01-30T12:48:37;7.30;;;4.00;;
76818;SDS011;65772;51.096;17.006;2024-01-30T12:51:08;14.00;;;4.40;;
76818;SDS011;65772;51.096;17.006;2024-01-30T12:53:38;10.80;;;4.10;;
76818;SDS011;65772;51.096;17.006;2024-01-30T12:56:09;10.00;;;4.60;;
76818;SDS011;65772;51.096;17.006;2024-01-30T12:58:40;8.60;;;4.10;;
76818;SDS011;65772;51.096;17.006;2024-01-30T13:01:12;11.10;;;4.60;;
76818;SDS011;65772;51.096;17.006;2024-01-30T13:03:43;9.40;;;4.80;;
76818;SDS011;65772;51.096;17.006;2024-01-30T13:06:14;8.50;;;4.10;;
76818;SDS011;65772;51.096;17.006;2024-01-30T13:08:44;9.10;;;4.40;;
76818;SDS011;65772;51.096;17.006;2024-01-30T13:11:15;10.80;;;4.10;;
76818;SDS011;65772;51.096;17.006;2024-01-30T13:13:48;11.40;;;4.70;;
76818;SDS011;65772;51.096;17.006;2024-01-30T13:16:19;9.60;;;4.70;;
76818;SDS011;65772;51.096;17.006;2024-01-30T13:18:49;9.20;;;4.80;;
76818;SDS011;65772;51.096;17.006;2024-01-30T13:21:22;10.80;;;5.00;;
76818;SDS011;65772;51.096;17.006;2024-01-30T13:23:53;10.50;;;5.40;;
76818;SDS011;65772;51.096;17.006;2024-01-30T13:26:23;11.40;;;4.70;;
76818;SDS011;65772;51.096;17.006;2024-01-30T13:28:54;11.80;;;4.50;;
76818;SDS011;65772;51.096;17.006;2024-01-30T13:31:25;10.60;;;5.40;;
76818;SDS011;65772;51.096;17.006;2024-01-30T13:33:56;10.80;;;5.20;;
76818;SDS011;65772;51.096;17.006;2024-01-30T13:36:27;9.50;;;5.30;;
76818;SDS011;65772;51.096;17.006;2024-01-30T13:38:58;11.20;;;5.20;;
76818;SDS011;65772;51.096;17.006;2024-01-30T13:41:28;11.10;;;5.70;;
76818;SDS011;65772;51.096;17.006;2024-01-30T13:43:59;12.70;;;5.00;;
76818;SDS011;65772;51.096;17.006;2024-01-30T13:46:31;10.00;;;5.30;;
76818;SDS011;65772;51.096;17.006;2024-01-30T13:49:02;15.30;;;6.30;;
76818;SDS011;65772;51.096;17.006;2024-01-30T13:51:33;12.70;;;6.10;;
76818;SDS011;65772;51.096;17.006;2024-01-30T13:54:03;14.60;;;5.80;;
76818;SDS011;65772;51.096;17.006;2024-01-30T13:56:34;12.10;;;5.70;;
76818;SDS011;65772;51.096;17.006;2024-01-30T13:59:05;8.70;;;5.00;;
76818;SDS011;65772;51.096;17.006;2024-01-30T14:01:35;13.10;;;5.70;;
76818;SDS011;65772;51.096;17.006;2024-01-30T14:04:06;11.60;;;6.00;;
76818;SDS011;65772;51.096;17.006;2024-01-30T14:06:39;11.90;;;5.20;;
76818;SDS011;65772;51.096;17.006;2024-01-30T14:09:23;11.30;;;5.10;;
76818;SDS011;65772;51.096;17.006;2024-01-30T14:11:54;12.10;;;5.10;;
76818;SDS011;65772;51.096;17.006;2024-01-30T14:14:24;16.30;;;6.30;;
76818;SDS011;65772;51.096;17.006;2024-01-30T14:16:55;13.50;;;5.30;;
76818;SDS011;65772;51.096;17.006;2024-01-30T14:19:26;13.30;;;5.90;;
76818;SDS011;65772;51.096;17.006;2024-01-30T14:21:57;9.80;;;5.50;;
76818;SDS011;65772;51.096;17.006;2024-01-30T14:24:27;10.70;;;5.70;;
76818;SDS011;65772;51.096;17.006;2024-01-30T14:26:58;11.90;;;5.50;;
76818;SDS011;65772;51.096;17.006;2024-01-30T14:29:28;11.40;;;5.30;;
76818;SDS011;65772;51.096;17.006;2024-01-30T14:31:59;9.00;;;5.50;;
76818;SDS011;65772;51.096;17.006;2024-01-30T14:34:30;14.30;;;6.00;;
76818;SDS011;65772;51.096;17.006;2024-01-30T14:37:00;11.20;;;6.00;;
76818;SDS011;65772;51.096;17.006;2024-01-30T14:39:31;12.30;;;5.50;;
76818;SDS011;65772;51.096;17.006;2024-01-30T14:42:05;10.30;;;5.70;;
76818;SDS011;65772;51.096;17.006;2024-01-30T14:44:36;10.40;;;5.10;;
76818;SDS011;65772;51.096;17.006;2024-01-30T14:47:07;12.10;;;5.50;;
76818;SDS011;65772;51.096;17.006;2024-01-30T14:49:38;13.00;;;6.40;;
76818;SDS011;65772;51.096;17.006;2024-01-30T14:52:08;9.80;;;5.40;;